Flight Track Log - Related Links

Times and Time Zones

All times are in EDT time to prevent confusion due to time zone crossing. See the DAL1979 flight status page for this flight to view local times or setup timezone preferences in your user account.

Time Position Orientation Groundspeed Altitude Reporting Facility
EDT Latitude Longitude Course Direction KTS MPH feet Rate Location/Type
Mon 04:03:17 PM 28.4130 -81.2960 164° South 176 203 200  Level FlightAware ADS-B
Mon 04:03:27 PM 28.4040 -81.2950 174° South 180 207 600 2,640 Climbing FlightAware ADS-B
Mon 04:03:42 PM 28.3910 -81.2970 188° South 177 204 1,300 2,133 Climbing FlightAware ADS-B
Mon 04:04:12 PM 28.3680 -81.3130 211° Southwest 201 231 2,200 1,855 Climbing FlightAware ADS-B
Mon 04:04:37 PM 28.3480 -81.3300 217° Southwest 229 264 3,000 1,800 Climbing FlightAware ADS-B
Mon 04:04:52 PM 28.3400 -81.3460 240° Southwest 241 277 3,400 2,000 Climbing FlightAware ADS-B
Mon 04:05:07 PM 28.3400 -81.3650 270° West 250 288 4,000 2,800 Climbing FlightAware ADS-B
Mon 04:05:22 PM 28.3410 -81.3860 273° West 253 291 4,800 3,450 Climbing FlightAware ADS-B
Mon 04:05:47 PM 28.3450 -81.4190 278° West 246 283 6,300 3,450 Climbing FlightAware ADS-B
Mon 04:06:02 PM 28.3480 -81.4380 280° West 245 282 7,100 2,250 Climbing FlightAware ADS-B
Mon 04:06:27 PM 28.3530 -81.4690 280° West 258 297 7,800 2,509 Climbing FlightAware ADS-B
Mon 04:06:57 PM 28.3590 -81.5100 279° West 254 292 9,400 2,571 Climbing FlightAware ADS-B
Mon 04:07:37 PM 28.3650 -81.5650 277° West 275 316 10,800 1,482 Climbing FlightAware ADS-B
Mon 04:08:22 PM 28.3730 -81.6370 277° West 327 376 11,500 1,341 Climbing FlightAware ADS-B
Mon 04:09:02 PM 28.3820 -81.7050 279° West 344 396 12,700 2,047 Climbing FlightAware ADS-B
Mon 04:09:47 PM 28.3910 -81.7880 277° West 352 405 14,400 2,259 Climbing FlightAware ADS-B
Mon 04:10:27 PM 28.3990 -81.8600 277° West 356 410 15,900 2,250 Climbing FlightAware ADS-B
Mon 04:11:07 PM 28.4070 -81.9340 277° West 361 415 17,400 2,118 Climbing FlightAware ADS-B
Mon 04:11:52 PM 28.4160 -82.0240 277° West 370 426 18,900 1,976 Climbing FlightAware ADS-B
Mon 04:12:32 PM 28.4250 -82.1070 277° West 375 432 20,200 1,976 Climbing FlightAware ADS-B
Mon 04:13:17 PM 28.4350 -82.1990 277° West 376 433 21,700 1,765 Climbing FlightAware ADS-B
Mon 04:13:57 PM 28.4440 -82.2760 278° West 384 442 22,700 1,575 Climbing FlightAware ADS-B
Mon 04:14:37 PM 28.4530 -82.3560 277° West 388 447 23,800 1,412 Climbing FlightAware ADS-B
Mon 04:15:22 PM 28.4790 -82.4420 289° West 406 467 24,700 1,200 Climbing FlightAware ADS-B
Mon 04:15:57 PM 28.5260 -82.4910 318° Northwest 421 484 25,400 1,350 Climbing FlightAware ADS-B
Mon 04:16:42 PM 28.6010 -82.5510 325° Northwest 425 489 26,500 1,341 Climbing FlightAware ADS-B
Mon 04:17:22 PM 28.6640 -82.6010 325° Northwest 426 490 27,300 1,200 Climbing FlightAware ADS-B
Mon 04:18:02 PM 28.7290 -82.6530 325° Northwest 429 494 28,100 1,350 Climbing FlightAware ADS-B
Mon 04:18:42 PM 28.7970 -82.7080 325° Northwest 418 481 29,100 1,582 Climbing FlightAware ADS-B
Mon 04:19:52 PM 28.9070 -82.7970 325° Northwest 411 473 31,000 1,450 Climbing FlightAware ADS-B
Mon 04:20:42 PM 28.9840 -82.8600 324° Northwest 400 460 32,000 729 Climbing FlightAware ADS-B
Mon 04:22:12 PM 29.1080 -82.9620 324° Northwest 403 464 32,700 323 Climbing FlightAware ADS-B
Mon 04:22:52 PM 29.1580 -83.0060 322° Northwest 403 464 32,700 1,050 Level FlightAware ADS-B
Mon 04:23:32 PM 29.2470 -83.0740 326° Northwest 415 478 34,100 1,271 Climbing FlightAware ADS-B
Mon 04:24:17 PM 29.3210 -83.1330 325° Northwest 415 478 34,500 818 Climbing FlightAware ADS-B
Mon 04:25:22 PM 29.4240 -83.2180 324° Northwest 402 463 35,600 840 Climbing FlightAware ADS-B
Mon 04:25:57 PM 29.4780 -83.2620 325° Northwest 403 464 35,900 282 Climbing FlightAware ADS-B
Mon 04:26:47 PM 29.5520 -83.3230 324° Northwest 403 464 36,000 40 Climbing FlightAware ADS-B
Mon 04:28:27 PM 29.7010 -83.4460 324° Northwest 404 465 36,000  Level FlightAware ADS-B
Mon 04:29:02 PM 29.7530 -83.4890 324° Northwest 402 463 36,000  Level FlightAware ADS-B
Mon 04:29:52 PM 29.8270 -83.5500 324° Northwest 403 464 36,000  Level FlightAware ADS-B
Mon 04:30:27 PM 29.8760 -83.5930 323° Northwest 403 464 36,000  Level FlightAware ADS-B
Mon 04:31:07 PM 29.9270 -83.6370 323° Northwest 403 464 36,000  Level FlightAware ADS-B
Mon 04:31:57 PM 29.9900 -83.6920 323° Northwest 403 464 36,000  Level FlightAware ADS-B
Mon 04:32:37 PM 30.0410 -83.7360 323° Northwest 403 464 36,000  Level FlightAware ADS-B
Mon 04:33:17 PM 30.0910 -83.7800 323° Northwest 403 464 36,000  Level FlightAware ADS-B
Mon 04:33:57 PM 30.1420 -83.8240 323° Northwest 403 464 36,000  Level FlightAware ADS-B
Mon 04:34:42 PM 30.2930 -83.9380 327° Northwest 423 487 36,000  Level FlightAware ADS-B
Mon 04:35:22 PM 30.3540 -83.9900 324° Northwest 421 484 36,000  Level FlightAware ADS-B
Mon 04:36:07 PM 30.4250 -84.0490 324° Northwest 423 487 36,000  Level FlightAware ADS-B
Mon 04:36:52 PM 30.4980 -84.1100 324° Northwest 423 487 36,000  Level FlightAware ADS-B
Mon 04:37:32 PM 30.5580 -84.1610 324° Northwest 423 487 36,000  Level FlightAware ADS-B
Mon 04:38:07 PM 30.6160 -84.2110 323° Northwest 423 487 36,000  Level FlightAware ADS-B
Mon 04:38:57 PM 30.6950 -84.2770 324° Northwest 423 487 36,000  Level FlightAware ADS-B
Mon 04:39:47 PM 30.7700 -84.3410 324° Northwest 424 488 36,000  Level FlightAware ADS-B
Mon 04:40:32 PM 30.7830 -84.3530 322° Northwest 424 488 36,000  Level FlightAware ADS-B
Mon 04:41:17 PM 30.9150 -84.4640 324° Northwest 422 486 36,000  Level FlightAware ADS-B
Mon 04:41:52 PM 30.9680 -84.5100 323° Northwest 421 484 36,000  Level FlightAware ADS-B
Mon 04:42:37 PM 31.0290 -84.5630 323° Northwest 421 484 36,000  Level FlightAware ADS-B
Mon 04:43:57 PM 31.0030 -84.5400 143° Southeast 419 482 36,000  Level FlightAware ADS-B
Mon 04:44:42 PM 30.9680 -84.5100 144° Southeast 419 482 36,000  Level FlightAware ADS-B
Mon 04:45:27 PM 31.0290 -84.5630 323° Northwest 419 482 36,000  Level FlightAware ADS-B
Mon 04:46:07 PM 31.0810 -84.6090 323° Northwest 419 482 36,000  Level FlightAware ADS-B
Mon 04:46:47 PM 31.1340 -84.6560 323° Northwest 419 482 36,000  Level FlightAware ADS-B
Mon 04:47:27 PM 31.1870 -84.7020 323° Northwest 419 482 36,000  Level FlightAware ADS-B
Mon 04:48:17 PM 31.2530 -84.7600 323° Northwest 419 482 36,000  Level FlightAware ADS-B
Mon 04:48:57 PM 31.3050 -84.8060 323° Northwest 419 482 36,000  Level FlightAware ADS-B
Mon 04:49:37 PM 31.3580 -84.8530 323° Northwest 419 482 36,000  Level FlightAware ADS-B
Mon 04:50:17 PM 31.4100 -84.8990 323° Northwest 419 482 36,000  Level FlightAware ADS-B
Mon 04:50:57 PM 31.4630 -84.9460 323° Northwest 419 482 36,000  Level FlightAware ADS-B
Mon 04:51:47 PM 31.5290 -85.0040 323° Northwest 419 482 36,000  Level FlightAware ADS-B
Mon 04:52:27 PM 31.5810 -85.0500 323° Northwest 419 482 36,000  Level FlightAware ADS-B
Mon 04:53:07 PM 31.6340 -85.0970 323° Northwest 419 482 36,000  Level FlightAware ADS-B
Mon 04:53:47 PM 31.6870 -85.1440 323° Northwest 419 482 36,000  Level FlightAware ADS-B
Mon 04:54:37 PM 31.7530 -85.2020 323° Northwest 419 482 36,000  Level FlightAware ADS-B
Mon 04:55:22 PM 32.2189 -85.5928 323° Northwest 420 483 36,000  Level Atlanta Center
Mon 04:56:22 PM 32.3264 -85.6858 324° Northwest 420 483 36,000  Level Atlanta Center
Mon 04:57:22 PM 32.4211 -85.7711 323° Northwest 425 489 36,000  Level Atlanta Center
Mon 04:59:00 PM 32.5755 -85.8968 326° Northwest  Level FlightAware Approximate
Mon 05:00:22 PM 32.7094 -86.0261 326° Northwest 431 496 36,000  Level Atlanta Center
Mon 05:06:57 PM 33.3620 -86.5790 326° Northwest 444 511 36,000  Level FlightAware ADS-B
Mon 05:07:42 PM 33.4470 -86.6240 336° Northwest 441 507 36,000  Level FlightAware ADS-B
Mon 05:08:22 PM 33.5210 -86.6640 336° Northwest 438 504 36,000  Level FlightAware ADS-B
Mon 05:09:02 PM 33.5970 -86.7050 336° Northwest 435 501 36,000  Level FlightAware ADS-B
Mon 05:09:47 PM 33.6800 -86.7510 335° Northwest 433 498 36,000  Level FlightAware ADS-B
Mon 05:10:37 PM 33.7580 -86.7930 336° Northwest 432 497 36,000  Level FlightAware ADS-B
Mon 05:11:37 PM 33.8730 -86.8590 335° Northwest 428 493 36,000  Level FlightAware ADS-B
Mon 05:12:22 PM 33.9390 -86.8970 334° Northwest 426 490 36,000  Level FlightAware ADS-B
Mon 05:13:17 PM 34.0260 -86.9450 335° Northwest 426 490 36,000  Level FlightAware ADS-B
Mon 05:13:57 PM 34.0870 -86.9800 335° Northwest 426 490 36,000  Level FlightAware ADS-B
Mon 05:14:37 PM 34.1470 -87.0140 335° Northwest 426 490 36,000  Level FlightAware ADS-B
Mon 05:15:17 PM 34.2080 -87.0480 335° Northwest 426 490 36,000  Level FlightAware ADS-B
Mon 05:15:57 PM 34.2690 -87.0820 335° Northwest 426 490 36,000  Level FlightAware ADS-B
Mon 05:16:47 PM 34.3450 -87.1250 335° Northwest 426 490 36,000  Level FlightAware ADS-B
Mon 05:17:27 PM 34.4060 -87.1590 335° Northwest 426 490 36,000  Level FlightAware ADS-B
Mon 05:18:07 PM 34.4660 -87.1940 334° Northwest 426 490 36,000  Level FlightAware ADS-B
Mon 05:18:47 PM 34.5270 -87.2280 335° Northwest 426 490 36,000  Level FlightAware ADS-B
Mon 05:19:27 PM 34.5880 -87.2630 335° Northwest 426 490 36,000  Level FlightAware ADS-B
Mon 05:20:17 PM 34.6640 -87.3060 335° Northwest 426 490 36,000  Level FlightAware ADS-B
Mon 05:20:57 PM 34.7240 -87.3400 335° Northwest 426 490 36,000  Level FlightAware ADS-B
Mon 05:21:37 PM 34.7850 -87.3740 335° Northwest 426 490 36,000  Level FlightAware ADS-B
Mon 05:22:17 PM 34.8460 -87.4090 335° Northwest 426 490 36,000  Level FlightAware ADS-B
Mon 05:22:49 PM 35.1144 -87.5681 334° Northwest 456 525 36,000  Level FlightAware ADS-B
Mon 05:23:22 PM 35.1783 -87.6051 335° Northwest 458 527 36,000  Level FlightAware ADS-B
Mon 05:23:57 PM 35.2390 -87.6400 335° Northwest 458 527 36,000  Level FlightAware ADS-B
Mon 05:24:42 PM 35.3290 -87.6930 334° Northwest 460 529 36,000  Level FlightAware ADS-B
Mon 05:25:37 PM 35.4270 -87.7500 335° Northwest 461 531 36,000  Level FlightAware ADS-B
Mon 05:26:27 PM 35.5290 -87.8100 334° Northwest 461 531 36,000  Level FlightAware ADS-B
Mon 05:27:07 PM 35.6040 -87.8540 335° Northwest 462 532 36,000  Level FlightAware ADS-B
Mon 05:27:52 PM 35.6840 -87.9020 334° Northwest 461 531 36,000  Level FlightAware ADS-B
Mon 05:28:37 PM 35.7800 -87.9570 335° Northwest 457 526 36,000  Level FlightAware ADS-B
Mon 05:29:22 PM 35.8670 -88.0090 334° Northwest 451 519 36,000  Level FlightAware ADS-B
Mon 05:30:02 PM 35.9430 -88.0540 334° Northwest 449 517 36,000  Level FlightAware ADS-B
Mon 05:30:42 PM 36.0170 -88.0980 334° Northwest 447 514 36,000  Level FlightAware ADS-B
Mon 05:31:22 PM 36.0860 -88.1390 334° Northwest 447 514 36,000  Level FlightAware ADS-B
Mon 05:32:02 PM 36.1650 -88.1860 334° Northwest 447 514 36,000  Level FlightAware ADS-B
Mon 05:32:47 PM 36.2400 -88.2310 334° Northwest 447 514 36,000  Level FlightAware ADS-B
Mon 05:33:27 PM 36.3030 -88.2690 334° Northwest 447 514 36,000  Level FlightAware ADS-B
Mon 05:34:17 PM 36.3820 -88.3170 334° Northwest 447 514 36,000  Level FlightAware ADS-B
Mon 05:34:57 PM 36.4910 -88.3820 334° Northwest 449 517 36,000  Level FlightAware ADS-B
Mon 05:35:42 PM 36.5770 -88.4310 335° Northwest 447 514 36,000  Level FlightAware ADS-B
Mon 05:36:22 PM 36.6600 -88.4480 351° North 442 509 36,000  Level FlightAware ADS-B
Mon 05:36:57 PM 36.7300 -88.4520 357° North 442 509 36,000  Level FlightAware ADS-B
Mon 05:37:47 PM 36.8300 -88.4590 357° North 442 509 36,000  Level FlightAware ADS-B
Mon 05:38:27 PM 36.9100 -88.4760 350° North 444 511 36,000  Level FlightAware ADS-B
Mon 05:39:12 PM 36.9880 -88.5080 342° North 444 511 36,000  Level FlightAware ADS-B
Mon 05:39:52 PM 37.0710 -88.5740 328° Northwest 449 517 36,000  Level FlightAware ADS-B
Mon 05:40:27 PM 37.1350 -88.6160 332° Northwest 450 518 36,000  Level FlightAware ADS-B
Mon 05:41:17 PM 37.2220 -88.6720 333° Northwest 450 518 36,000  Level FlightAware ADS-B
Mon 05:41:57 PM 37.3030 -88.7230 333° Northwest 450 518 36,000  Level FlightAware ADS-B
Mon 05:42:42 PM 37.3840 -88.7760 333° Northwest 448 516 36,000  Level FlightAware ADS-B
Mon 05:43:22 PM 37.4600 -88.8250 333° Northwest 445 512 36,000  Level FlightAware ADS-B
Mon 05:44:02 PM 37.5350 -88.8730 333° Northwest 444 511 36,000  Level FlightAware ADS-B
Mon 05:44:37 PM 37.5910 -88.9090 333° Northwest 443 510 36,000  Level FlightAware ADS-B
Mon 05:45:22 PM 37.6760 -88.9640 333° Northwest 443 510 36,000  Level FlightAware ADS-B
Mon 05:46:27 PM 37.7970 -89.0430 333° Northwest 445 512 36,000  Level FlightAware ADS-B
Mon 05:47:07 PM 37.8700 -89.0910 333° Northwest 446 513 36,000  Level FlightAware ADS-B
Mon 05:47:47 PM 37.9440 -89.1400 332° Northwest 449 517 36,000  Level FlightAware ADS-B
Mon 05:48:32 PM 38.0300 -89.1960 333° Northwest 451 519 36,000  Level FlightAware ADS-B
Mon 05:49:02 PM 38.0800 -89.2290 333° Northwest 451 519 36,000  Level FlightAware ADS-B
Mon 05:49:52 PM 38.1740 -89.2910 333° Northwest 452 520 36,000  Level FlightAware ADS-B
Mon 05:50:32 PM 38.2460 -89.3380 333° Northwest 452 520 36,000  Level FlightAware ADS-B
Mon 05:51:32 PM 38.3560 -89.4120 332° Northwest 452 520 36,000  Level FlightAware ADS-B
Mon 05:52:12 PM 38.4390 -89.4670 333° Northwest 454 522 36,000  Level FlightAware ADS-B
Mon 05:52:57 PM 38.5170 -89.5190 332° Northwest 455 524 36,000  Level FlightAware ADS-B
Mon 05:53:37 PM 38.5950 -89.5710 332° Northwest 455 524 36,000  Level FlightAware ADS-B
Mon 05:54:22 PM 38.6720 -89.6230 332° Northwest 455 524 36,000  Level FlightAware ADS-B
Mon 05:55:02 PM 38.7510 -89.6760 332° Northwest 456 525 36,000  Level FlightAware ADS-B
Mon 05:55:42 PM 38.8230 -89.7240 333° Northwest 456 525 36,000  Level FlightAware ADS-B
Mon 05:56:27 PM 38.9120 -89.7840 332° Northwest 457 526 36,000  Level FlightAware ADS-B
Mon 05:57:07 PM 38.9910 -89.8380 332° Northwest 458 527 36,000  Level FlightAware ADS-B
Mon 05:57:52 PM 39.0690 -89.8910 332° Northwest 459 528 36,000  Level FlightAware ADS-B
Mon 05:58:32 PM 39.1480 -89.9450 332° Northwest 460 529 36,000  Level FlightAware ADS-B
Mon 05:59:12 PM 39.2240 -89.9960 333° Northwest 462 532 36,000  Level FlightAware ADS-B
Mon 05:59:57 PM 39.3000 -90.0500 331° Northwest 462 532 36,000  Level FlightAware ADS-B
Mon 06:00:37 PM 39.3850 -90.1070 333° Northwest 462 532 36,000  Level FlightAware ADS-B
Mon 06:01:17 PM 39.4610 -90.1590 332° Northwest 462 532 36,000  Level FlightAware ADS-B
Mon 06:02:02 PM 39.5440 -90.2170 332° Northwest 462 532 36,000  Level FlightAware ADS-B
Mon 06:02:32 PM 39.6020 -90.2570 332° Northwest 462 532 36,000  Level FlightAware ADS-B
Mon 06:03:27 PM 39.7060 -90.3290 332° Northwest 463 533 36,000  Level FlightAware ADS-B
Mon 06:04:07 PM 39.7790 -90.3800 332° Northwest 463 533 36,000  Level FlightAware ADS-B
Mon 06:04:47 PM 39.8570 -90.4340 332° Northwest 463 533 36,000  Level FlightAware ADS-B
Mon 06:05:32 PM 39.9380 -90.4910 332° Northwest 464 534 36,000  Level FlightAware ADS-B
Mon 06:06:12 PM 40.0170 -90.5460 332° Northwest 465 535 36,000  Level FlightAware ADS-B
Mon 06:07:02 PM 40.1130 -90.6140 332° Northwest 466 536 36,000  Level FlightAware ADS-B
Mon 06:07:52 PM 40.2070 -90.6800 332° Northwest 465 535 36,000  Level FlightAware ADS-B
Mon 06:08:32 PM 40.2830 -90.7340 332° Northwest 466 536 36,000  Level FlightAware ADS-B
Mon 06:09:12 PM 40.3560 -90.7860 332° Northwest 466 536 36,000  Level FlightAware ADS-B
Mon 06:09:57 PM 40.4450 -90.8490 332° Northwest 468 539 36,000  Level FlightAware ADS-B
Mon 06:10:37 PM 40.5220 -90.9040 332° Northwest 470 541 36,000  Level FlightAware ADS-B
Mon 06:11:07 PM 40.5750 -90.9430 331° Northwest 470 541 36,000  Level FlightAware ADS-B
Mon 06:11:52 PM 40.6610 -91.0040 332° Northwest 471 542 36,000  Level FlightAware ADS-B
Mon 06:12:32 PM 40.7430 -91.0630 331° Northwest 473 544 36,000  Level FlightAware ADS-B
Mon 06:13:12 PM 40.8180 -91.1170 331° Northwest 474 545 36,000  Level FlightAware ADS-B
Mon 06:13:57 PM 40.9050 -91.1800 331° Northwest 474 545 36,000  Level FlightAware ADS-B
Mon 06:14:37 PM 40.9790 -91.2340 331° Northwest 476 548 36,000  Level FlightAware ADS-B
Mon 06:15:22 PM 41.0700 -91.3000 331° Northwest 477 549 36,000  Level FlightAware ADS-B
Mon 06:16:02 PM 41.1470 -91.3560 331° Northwest 478 550 36,000  Level FlightAware ADS-B
Mon 06:16:37 PM 41.2140 -91.4050 331° Northwest 477 549 36,000  Level FlightAware ADS-B
Mon 06:17:42 PM 41.3390 -91.4970 331° Northwest 476 548 36,000  Level FlightAware ADS-B
Mon 06:18:22 PM 41.4130 -91.5510 331° Northwest 475 547 36,000  Level FlightAware ADS-B
Mon 06:19:02 PM 41.4950 -91.6110 331° Northwest 475 547 36,000  Level FlightAware ADS-B
Mon 06:19:47 PM 41.5770 -91.6720 331° Northwest 475 547 36,000  Level FlightAware ADS-B
Mon 06:20:27 PM 41.6590 -91.7330 331° Northwest 476 548 36,000  Level FlightAware ADS-B
Mon 06:21:02 PM 41.7210 -91.7790 331° Northwest 477 549 36,000  Level FlightAware ADS-B
Mon 06:21:52 PM 41.8230 -91.8550 331° Northwest 478 550 36,000  Level FlightAware ADS-B
Mon 06:22:32 PM 41.8930 -91.9080 331° Northwest 479 551 36,000  Level FlightAware ADS-B
Mon 06:23:17 PM 41.9880 -91.9790 331° Northwest 480 552 36,000  Level FlightAware ADS-B
Mon 06:23:57 PM 42.0640 -92.0360 331° Northwest 482 555 36,000 -71 Level FlightAware ADS-B
Mon 06:24:42 PM 42.1480 -92.1000 331° Northwest 475 547 35,900 -988 Descending FlightAware ADS-B
Mon 06:25:22 PM 42.2280 -92.1600 331° Northwest 475 547 34,600 -1,425 Descending FlightAware ADS-B
Mon 06:26:02 PM 42.3060 -92.2190 331° Northwest 481 554 34,000 -424 Descending FlightAware ADS-B
Mon 06:26:47 PM 42.3930 -92.2860 330° Northwest 478 550 34,000  Level FlightAware ADS-B
Mon 06:27:27 PM 42.4730 -92.3470 331° Northwest 476 548 34,000  Level FlightAware ADS-B
Mon 06:28:12 PM 42.5550 -92.4120 330° Northwest 477 549 34,000  Level FlightAware ADS-B
Mon 06:28:52 PM 42.6290 -92.4780 327° Northwest 477 549 34,000  Level FlightAware ADS-B
Mon 06:29:27 PM 42.6950 -92.5380 326° Northwest 477 549 34,000  Level FlightAware ADS-B
Mon 06:30:07 PM 42.7680 -92.6060 326° Northwest 476 548 34,000  Level FlightAware ADS-B
Mon 06:30:52 PM 42.8470 -92.6790 326° Northwest 476 548 34,000 -353 Level FlightAware ADS-B
Mon 06:31:32 PM 42.9210 -92.7470 326° Northwest 477 549 33,500 -975 Descending FlightAware ADS-B
Mon 06:32:12 PM 42.9960 -92.8160 326° Northwest 482 555 32,700 -1,200 Descending FlightAware ADS-B
Mon 06:32:57 PM 43.0770 -92.8920 326° Northwest 482 555 31,800 -988 Descending FlightAware ADS-B
Mon 06:33:37 PM 43.1500 -92.9600 326° Northwest 479 551 31,300 -988 Descending FlightAware ADS-B
Mon 06:34:22 PM 43.2370 -93.0420 326° Northwest 480 552 30,400 -1,129 Descending FlightAware ADS-B
Mon 06:35:02 PM 43.3100 -93.1100 326° Northwest 480 552 29,700 -988 Descending FlightAware ADS-B
Mon 06:35:47 PM 43.3860 -93.1820 325° Northwest 481 554 29,000 -1,553 Descending FlightAware ADS-B
Mon 06:36:27 PM 43.4640 -93.2550 326° Northwest 484 557 27,500 -2,550 Descending FlightAware ADS-B
Mon 06:37:07 PM 43.5510 -93.2920 343° North 477 549 25,600 -2,760 Descending FlightAware ADS-B
Mon 06:37:17 PM 43.5710 -93.2920 360° North 475 547 25,200 -3,120 Descending FlightAware ADS-B
Mon 06:37:57 PM 43.6600 -93.2840 North 456 525 23,000 -3,225 Descending FlightAware ADS-B
Mon 06:38:37 PM 43.7400 -93.2760 North 436 502 20,900 -3,247 Descending FlightAware ADS-B
Mon 06:39:22 PM 43.8250 -93.2500 12° North 417 480 18,400 -3,318 Descending FlightAware ADS-B
Mon 06:40:02 PM 43.8860 -93.1870 37° Northeast 402 463 16,200 -3,106 Descending FlightAware ADS-B
Mon 06:40:47 PM 43.9450 -93.1110 43° Northeast 388 447 14,000 -3,106 Descending FlightAware ADS-B
Mon 06:41:27 PM 44.0040 -93.0490 37° Northeast 377 434 11,800 -3,164 Descending FlightAware ADS-B
Mon 06:41:42 PM 44.0280 -93.0420 12° North 371 427 11,100 -2,267 Descending FlightAware ADS-B
Mon 06:42:12 PM 44.0770 -93.0570 348° North 347 399 10,100 -857 Descending FlightAware ADS-B
Mon 06:42:52 PM 44.1240 -93.1080 322° Northwest 305 351 10,100 -171 Level FlightAware ADS-B
Mon 06:43:22 PM 44.1540 -93.1450 319° Northwest 282 325 9,900 -218 Descending FlightAware ADS-B
Mon 06:43:47 PM 44.1800 -93.1760 319° Northwest 283 326 9,900  Level FlightAware ADS-B
Mon 06:44:17 PM 44.2110 -93.2120 320° Northwest 277 319 9,900  Level FlightAware ADS-B
Mon 06:44:42 PM 44.2380 -93.2250 341° North 278 320 9,900  Level FlightAware ADS-B
Mon 06:44:57 PM 44.2590 -93.2240 North 277 319 9,900  Level FlightAware ADS-B
Mon 06:45:12 PM 44.2780 -93.2230 North 278 320 9,900  Level FlightAware ADS-B
Mon 06:45:42 PM 44.3150 -93.2110 13° North 270 311 9,900  Level FlightAware ADS-B
Mon 06:46:07 PM 44.3440 -93.1950 22° Northeast 246 283 9,900  Level FlightAware ADS-B
Mon 06:46:37 PM 44.3750 -93.1770 23° Northeast 239 275 9,900 -436 Level FlightAware ADS-B
Mon 06:47:02 PM 44.3990 -93.1640 21° North 223 257 9,500 -1,200 Descending FlightAware ADS-B
Mon 06:47:32 PM 44.4270 -93.1490 21° North 209 241 8,800 -1,636 Descending FlightAware ADS-B
Mon 06:47:57 PM 44.4500 -93.1400 16° North 206 237 8,000 -1,855 Descending FlightAware ADS-B
Mon 06:48:27 PM 44.4790 -93.1430 356° North 212 244 7,100 -1,100 Descending FlightAware ADS-B
Mon 06:48:57 PM 44.5080 -93.1510 349° North 208 239 6,900 -218 Descending FlightAware ADS-B
Mon 06:49:22 PM 44.5310 -93.1580 348° North 209 241 6,900 -327 Level FlightAware ADS-B
Mon 06:49:52 PM 44.5610 -93.1660 349° North 213 245 6,600 -800 Descending FlightAware ADS-B
Mon 06:50:22 PM 44.5890 -93.1730 350° North 208 239 6,100 -982 Descending FlightAware ADS-B
Mon 06:50:47 PM 44.6140 -93.1790 350° North 207 238 5,700 -1,200 Descending FlightAware ADS-B
Mon 06:51:17 PM 44.6430 -93.1870 349° North 211 243 5,000 -1,309 Descending FlightAware ADS-B
Mon 06:51:42 PM 44.6640 -93.1920 350° North 204 235 4,500 -1,091 Descending FlightAware ADS-B
Mon 06:52:12 PM 44.6930 -93.2000 349° North 192 221 4,000 -1,000 Descending FlightAware ADS-B
Mon 06:52:42 PM 44.7180 -93.2060 350° North 197 227 3,500 -1,091 Descending FlightAware ADS-B
Mon 06:53:07 PM 44.7420 -93.2120 350° North 188 216 3,000 -1,091 Descending FlightAware ADS-B
Mon 06:53:37 PM 44.7660 -93.2180 350° North 187 215 2,500 -1,000 Descending FlightAware ADS-B
Mon 06:54:07 PM 44.7910 -93.2250 349° North 160 184 2,000 -873 Descending FlightAware ADS-B
Mon 06:54:32 PM 44.8070 -93.2290 350° North 147 169 1,700 -655 Descending FlightAware ADS-B
Mon 06:55:02 PM 44.8280 -93.2340 350° North 151 174 1,400 -764 Descending FlightAware ADS-B
Mon 06:55:27 PM 44.8460 -93.2390 349° North 142 163 1,000 -764 Descending FlightAware ADS-B
Mon 06:55:57 PM 44.8650 -93.2440 349° North 145 167 700 -600 Descending FlightAware ADS-B

Login

Don't have an account? Register now (free) for customized features, flight alerts, and more!